sensor_id;sensor_type;location;lat;lon;timestamp;temperature;humidity
3208;DHT22;1616;52.394;9.756;2023-04-12T00:00:18;4.90;1.00
3208;DHT22;1616;52.394;9.756;2023-04-12T00:02:44;4.90;1.00
3208;DHT22;1616;52.394;9.756;2023-04-12T00:05:10;4.90;1.00
3208;DHT22;1616;52.394;9.756;2023-04-12T00:07:36;4.90;1.00
3208;DHT22;1616;52.394;9.756;2023-04-12T00:10:06;4.90;1.00
3208;DHT22;1616;52.394;9.756;2023-04-12T00:12:32;4.90;1.00
3208;DHT22;1616;52.394;9.756;2023-04-12T00:14:58;4.90;1.00
3208;DHT22;1616;52.394;9.756;2023-04-12T00:17:23;4.90;1.00
3208;DHT22;1616;52.394;9.756;2023-04-12T00:19:49;4.90;1.00
3208;DHT22;1616;52.394;9.756;2023-04-12T00:22:15;4.90;1.00
3208;DHT22;1616;52.394;9.756;2023-04-12T00:24:41;5.00;1.00
3208;DHT22;1616;52.394;9.756;2023-04-12T00:27:07;5.00;1.00
3208;DHT22;1616;52.394;9.756;2023-04-12T00:29:32;4.90;1.00
3208;DHT22;1616;52.394;9.756;2023-04-12T00:31:59;5.00;1.00
3208;DHT22;1616;52.394;9.756;2023-04-12T00:34:28;4.90;1.00
3208;DHT22;1616;52.394;9.756;2023-04-12T00:36:55;4.90;1.00
3208;DHT22;1616;52.394;9.756;2023-04-12T00:39:21;5.00;1.00
3208;DHT22;1616;52.394;9.756;2023-04-12T00:41:47;4.90;1.00
3208;DHT22;1616;52.394;9.756;2023-04-12T00:44:12;5.00;1.00
3208;DHT22;1616;52.394;9.756;2023-04-12T00:46:39;4.90;1.00
3208;DHT22;1616;52.394;9.756;2023-04-12T00:49:06;4.90;1.00
3208;DHT22;1616;52.394;9.756;2023-04-12T00:51:31;4.90;1.00
3208;DHT22;1616;52.394;9.756;2023-04-12T00:53:58;5.00;1.00
3208;DHT22;1616;52.394;9.756;2023-04-12T00:56:27;5.00;1.00
3208;DHT22;1616;52.394;9.756;2023-04-12T00:58:55;5.00;1.00
3208;DHT22;1616;52.394;9.756;2023-04-12T01:01:21;5.00;1.00
3208;DHT22;1616;52.394;9.756;2023-04-12T01:03:52;5.00;1.00
3208;DHT22;1616;52.394;9.756;2023-04-12T01:15:01;5.00;1.00
3208;DHT22;1616;52.394;9.756;2023-04-12T01:17:29;5.00;1.00
3208;DHT22;1616;52.394;9.756;2023-04-12T01:20:08;5.00;1.00
3208;DHT22;1616;52.394;9.756;2023-04-12T01:25:36;4.80;1.00
3208;DHT22;1616;52.394;9.756;2023-04-12T01:28:04;5.00;1.00
3208;DHT22;1616;52.394;9.756;2023-04-12T01:30:31;5.00;1.00
3208;DHT22;1616;52.394;9.756;2023-04-12T01:32:59;5.00;1.00
3208;DHT22;1616;52.394;9.756;2023-04-12T01:35:30;5.00;1.00
3208;DHT22;1616;52.394;9.756;2023-04-12T01:37:59;5.00;1.00
3208;DHT22;1616;52.394;9.756;2023-04-12T01:40:27;5.00;1.00
3208;DHT22;1616;52.394;9.756;2023-04-12T01:43:10;5.00;1.00
3208;DHT22;1616;52.394;9.756;2023-04-12T01:45:36;5.00;1.00
3208;DHT22;1616;52.394;9.756;2023-04-12T01:48:07;5.00;1.00
3208;DHT22;1616;52.394;9.756;2023-04-12T01:50:59;5.00;1.00
3208;DHT22;1616;52.394;9.756;2023-04-12T01:56:01;5.10;1.00
3208;DHT22;1616;52.394;9.756;2023-04-12T01:58:29;5.10;1.00
3208;DHT22;1616;52.394;9.756;2023-04-12T02:00:56;5.10;1.00
3208;DHT22;1616;52.394;9.756;2023-04-12T02:03:23;5.10;1.00
3208;DHT22;1616;52.394;9.756;2023-04-12T02:05:50;5.10;1.00
3208;DHT22;1616;52.394;9.756;2023-04-12T02:08:17;5.10;1.00
3208;DHT22;1616;52.394;9.756;2023-04-12T02:10:42;5.10;1.00
3208;DHT22;1616;52.394;9.756;2023-04-12T02:13:08;5.10;1.00
3208;DHT22;1616;52.394;9.756;2023-04-12T02:15:33;5.10;1.00
3208;DHT22;1616;52.394;9.756;2023-04-12T02:18:01;5.10;1.00
3208;DHT22;1616;52.394;9.756;2023-04-12T02:20:28;5.10;1.00
3208;DHT22;1616;52.394;9.756;2023-04-12T02:22:54;5.20;1.00
3208;DHT22;1616;52.394;9.756;2023-04-12T02:25:20;5.20;1.00
3208;DHT22;1616;52.394;9.756;2023-04-12T02:27:46;5.20;1.00
3208;DHT22;1616;52.394;9.756;2023-04-12T02:30:14;5.20;1.00
3208;DHT22;1616;52.394;9.756;2023-04-12T02:32:40;5.20;1.00
3208;DHT22;1616;52.394;9.756;2023-04-12T02:35:10;5.20;1.00
3208;DHT22;1616;52.394;9.756;2023-04-12T02:37:36;5.30;1.00
3208;DHT22;1616;52.394;9.756;2023-04-12T02:40:03;5.30;1.00
3208;DHT22;1616;52.394;9.756;2023-04-12T02:42:32;5.30;1.00
3208;DHT22;1616;52.394;9.756;2023-04-12T02:44:57;5.30;1.00
3208;DHT22;1616;52.394;9.756;2023-04-12T02:47:23;5.30;1.00
3208;DHT22;1616;52.394;9.756;2023-04-12T02:49:54;5.30;1.00
3208;DHT22;1616;52.394;9.756;2023-04-12T02:52:19;5.40;1.00
3208;DHT22;1616;52.394;9.756;2023-04-12T02:54:45;5.40;1.00
3208;DHT22;1616;52.394;9.756;2023-04-12T02:57:11;5.40;1.00
3208;DHT22;1616;52.394;9.756;2023-04-12T02:59:38;5.40;1.00
3208;DHT22;1616;52.394;9.756;2023-04-12T03:02:03;5.50;1.00
3208;DHT22;1616;52.394;9.756;2023-04-12T03:04:29;5.50;1.00
3208;DHT22;1616;52.394;9.756;2023-04-12T03:06:57;5.50;1.00
3208;DHT22;1616;52.394;9.756;2023-04-12T03:09:23;5.50;1.00
3208;DHT22;1616;52.394;9.756;2023-04-12T03:11:50;5.50;1.00
3208;DHT22;1616;52.394;9.756;2023-04-12T03:14:16;5.50;1.00
3208;DHT22;1616;52.394;9.756;2023-04-12T03:16:42;5.60;1.00
3208;DHT22;1616;52.394;9.756;2023-04-12T03:19:08;5.60;1.00
3208;DHT22;1616;52.394;9.756;2023-04-12T03:21:34;5.60;1.00
3208;DHT22;1616;52.394;9.756;2023-04-12T03:23:59;5.60;1.00
3208;DHT22;1616;52.394;9.756;2023-04-12T03:26:26;5.60;1.00
3208;DHT22;1616;52.394;9.756;2023-04-12T03:28:59;5.60;1.00
3208;DHT22;1616;52.394;9.756;2023-04-12T03:31:25;5.60;1.00
3208;DHT22;1616;52.394;9.756;2023-04-12T03:33:52;5.60;1.00
3208;DHT22;1616;52.394;9.756;2023-04-12T03:36:18;5.60;1.00
3208;DHT22;1616;52.394;9.756;2023-04-12T03:38:46;5.60;1.00
3208;DHT22;1616;52.394;9.756;2023-04-12T03:41:11;5.70;1.00
3208;DHT22;1616;52.394;9.756;2023-04-12T03:43:37;5.70;1.00
3208;DHT22;1616;52.394;9.756;2023-04-12T03:46:04;5.70;1.00
3208;DHT22;1616;52.394;9.756;2023-04-12T03:48:30;5.70;1.00
3208;DHT22;1616;52.394;9.756;2023-04-12T03:50:56;5.70;1.00
3208;DHT22;1616;52.394;9.756;2023-04-12T03:53:27;5.70;1.00
3208;DHT22;1616;52.394;9.756;2023-04-12T03:55:55;5.80;1.00
3208;DHT22;1616;52.394;9.756;2023-04-12T03:58:20;5.80;1.00
3208;DHT22;1616;52.394;9.756;2023-04-12T04:00:47;5.80;1.00
3208;DHT22;1616;52.394;9.756;2023-04-12T04:03:14;5.80;1.00
3208;DHT22;1616;52.394;9.756;2023-04-12T04:05:40;5.90;1.00
3208;DHT22;1616;52.394;9.756;2023-04-12T04:08:06;5.90;1.00
3208;DHT22;1616;52.394;9.756;2023-04-12T04:10:33;5.90;1.00
3208;DHT22;1616;52.394;9.756;2023-04-12T04:12:58;5.90;1.00
3208;DHT22;1616;52.394;9.756;2023-04-12T04:15:25;6.00;1.00
3208;DHT22;1616;52.394;9.756;2023-04-12T04:17:51;6.00;1.00
3208;DHT22;1616;52.394;9.756;2023-04-12T04:20:18;6.10;1.00
3208;DHT22;1616;52.394;9.756;2023-04-12T04:22:44;6.10;1.00
3208;DHT22;1616;52.394;9.756;2023-04-12T04:25:13;6.10;1.00
3208;DHT22;1616;52.394;9.756;2023-04-12T04:27:42;6.20;1.00
3208;DHT22;1616;52.394;9.756;2023-04-12T04:30:10;6.30;1.00
3208;DHT22;1616;52.394;9.756;2023-04-12T04:32:37;6.30;1.00
3208;DHT22;1616;52.394;9.756;2023-04-12T04:35:03;6.30;1.00
3208;DHT22;1616;52.394;9.756;2023-04-12T04:37:29;6.40;1.00
3208;DHT22;1616;52.394;9.756;2023-04-12T04:39:55;6.40;1.00
3208;DHT22;1616;52.394;9.756;2023-04-12T04:42:22;6.40;1.00
3208;DHT22;1616;52.394;9.756;2023-04-12T04:44:49;6.50;1.00
3208;DHT22;1616;52.394;9.756;2023-04-12T04:47:27;6.50;1.00
3208;DHT22;1616;52.394;9.756;2023-04-12T04:49:55;6.50;1.00
3208;DHT22;1616;52.394;9.756;2023-04-12T04:52:24;6.50;1.00
3208;DHT22;1616;52.394;9.756;2023-04-12T04:54:49;6.50;1.00
3208;DHT22;1616;52.394;9.756;2023-04-12T04:57:15;6.50;1.00
3208;DHT22;1616;52.394;9.756;2023-04-12T04:59:41;6.50;1.00
3208;DHT22;1616;52.394;9.756;2023-04-12T05:02:06;6.50;1.00
3208;DHT22;1616;52.394;9.756;2023-04-12T05:04:32;6.50;1.00
3208;DHT22;1616;52.394;9.756;2023-04-12T05:06:58;6.50;1.00
3208;DHT22;1616;52.394;9.756;2023-04-12T05:09:24;6.60;1.00
3208;DHT22;1616;52.394;9.756;2023-04-12T05:11:50;6.70;1.00
3208;DHT22;1616;52.394;9.756;2023-04-12T05:14:16;6.80;1.00
3208;DHT22;1616;52.394;9.756;2023-04-12T05:16:41;6.90;1.00
3208;DHT22;1616;52.394;9.756;2023-04-12T05:19:07;7.20;1.00
3208;DHT22;1616;52.394;9.756;2023-04-12T05:21:32;7.50;1.00
3208;DHT22;1616;52.394;9.756;2023-04-12T05:23:58;7.90;1.00
3208;DHT22;1616;52.394;9.756;2023-04-12T05:26:24;8.40;1.00
3208;DHT22;1616;52.394;9.756;2023-04-12T05:28:50;8.80;1.00
3208;DHT22;1616;52.394;9.756;2023-04-12T05:31:16;8.90;1.00
3208;DHT22;1616;52.394;9.756;2023-04-12T05:33:42;8.80;1.00
3208;DHT22;1616;52.394;9.756;2023-04-12T05:36:10;8.70;1.00
3208;DHT22;1616;52.394;9.756;2023-04-12T05:38:36;8.70;1.00
3208;DHT22;1616;52.394;9.756;2023-04-12T05:41:02;8.60;1.00
3208;DHT22;1616;52.394;9.756;2023-04-12T05:43:29;8.50;1.00
3208;DHT22;1616;52.394;9.756;2023-04-12T05:45:54;8.50;1.00
3208;DHT22;1616;52.394;9.756;2023-04-12T05:48:20;8.50;1.00
3208;DHT22;1616;52.394;9.756;2023-04-12T05:50:53;8.50;1.00
3208;DHT22;1616;52.394;9.756;2023-04-12T05:53:20;8.50;1.00
3208;DHT22;1616;52.394;9.756;2023-04-12T05:55:46;8.60;1.00
3208;DHT22;1616;52.394;9.756;2023-04-12T05:58:11;8.60;1.00
3208;DHT22;1616;52.394;9.756;2023-04-12T06:00:41;8.60;1.00
3208;DHT22;1616;52.394;9.756;2023-04-12T06:03:08;8.80;1.00
3208;DHT22;1616;52.394;9.756;2023-04-12T06:05:34;8.80;1.00
3208;DHT22;1616;52.394;9.756;2023-04-12T06:08:00;8.80;1.00
3208;DHT22;1616;52.394;9.756;2023-04-12T06:10:26;8.90;1.00
3208;DHT22;1616;52.394;9.756;2023-04-12T06:12:52;8.90;1.00
3208;DHT22;1616;52.394;9.756;2023-04-12T06:15:17;9.00;1.00
3208;DHT22;1616;52.394;9.756;2023-04-12T06:17:44;9.30;1.00
3208;DHT22;1616;52.394;9.756;2023-04-12T06:20:10;9.90;1.00
3208;DHT22;1616;52.394;9.756;2023-04-12T06:22:36;10.40;1.00
3208;DHT22;1616;52.394;9.756;2023-04-12T06:25:02;10.80;1.00
3208;DHT22;1616;52.394;9.756;2023-04-12T06:27:29;11.10;1.00
3208;DHT22;1616;52.394;9.756;2023-04-12T06:29:54;11.30;1.00
3208;DHT22;1616;52.394;9.756;2023-04-12T06:32:20;11.40;1.00
3208;DHT22;1616;52.394;9.756;2023-04-12T06:34:46;11.50;1.00
3208;DHT22;1616;52.394;9.756;2023-04-12T06:37:11;11.50;1.00
3208;DHT22;1616;52.394;9.756;2023-04-12T06:39:37;11.60;1.00
3208;DHT22;1616;52.394;9.756;2023-04-12T06:42:03;11.60;1.00
3208;DHT22;1616;52.394;9.756;2023-04-12T06:44:29;11.70;1.00
3208;DHT22;1616;52.394;9.756;2023-04-12T06:46:55;11.80;1.00
3208;DHT22;1616;52.394;9.756;2023-04-12T06:49:21;12.00;1.00
3208;DHT22;1616;52.394;9.756;2023-04-12T06:51:47;12.10;1.00
3208;DHT22;1616;52.394;9.756;2023-04-12T06:54:13;12.20;1.00
3208;DHT22;1616;52.394;9.756;2023-04-12T06:56:38;12.10;1.00
3208;DHT22;1616;52.394;9.756;2023-04-12T06:59:04;12.10;1.00
3208;DHT22;1616;52.394;9.756;2023-04-12T07:01:30;12.00;1.00
3208;DHT22;1616;52.394;9.756;2023-04-12T07:03:55;12.10;1.00
3208;DHT22;1616;52.394;9.756;2023-04-12T07:06:21;12.00;1.00
3208;DHT22;1616;52.394;9.756;2023-04-12T07:08:47;12.00;1.00
3208;DHT22;1616;52.394;9.756;2023-04-12T07:11:13;12.00;1.00
3208;DHT22;1616;52.394;9.756;2023-04-12T07:13:38;12.00;1.00
3208;DHT22;1616;52.394;9.756;2023-04-12T07:16:04;12.00;1.00
3208;DHT22;1616;52.394;9.756;2023-04-12T07:18:30;11.90;1.00
3208;DHT22;1616;52.394;9.756;2023-04-12T07:20:56;11.90;1.00
3208;DHT22;1616;52.394;9.756;2023-04-12T07:23:23;11.90;1.00
3208;DHT22;1616;52.394;9.756;2023-04-12T07:25:50;11.80;1.00
3208;DHT22;1616;52.394;9.756;2023-04-12T07:28:18;11.80;1.00
3208;DHT22;1616;52.394;9.756;2023-04-12T07:30:45;11.80;1.00
3208;DHT22;1616;52.394;9.756;2023-04-12T07:33:11;11.80;1.00
3208;DHT22;1616;52.394;9.756;2023-04-12T07:35:37;11.80;1.00
3208;DHT22;1616;52.394;9.756;2023-04-12T07:38:02;11.90;1.00
3208;DHT22;1616;52.394;9.756;2023-04-12T07:40:28;12.00;1.00
3208;DHT22;1616;52.394;9.756;2023-04-12T07:42:54;12.10;1.00
3208;DHT22;1616;52.394;9.756;2023-04-12T07:45:20;12.20;1.00
3208;DHT22;1616;52.394;9.756;2023-04-12T07:47:45;12.30;1.00
3208;DHT22;1616;52.394;9.756;2023-04-12T07:50:12;12.50;1.00
3208;DHT22;1616;52.394;9.756;2023-04-12T07:52:38;12.70;1.00
3208;DHT22;1616;52.394;9.756;2023-04-12T07:55:04;13.00;1.00
3208;DHT22;1616;52.394;9.756;2023-04-12T07:57:29;13.60;1.00
3208;DHT22;1616;52.394;9.756;2023-04-12T07:59:56;14.30;1.00
3208;DHT22;1616;52.394;9.756;2023-04-12T08:02:22;14.90;1.00
3208;DHT22;1616;52.394;9.756;2023-04-12T08:04:51;15.20;1.00
3208;DHT22;1616;52.394;9.756;2023-04-12T08:07:17;15.20;1.00
3208;DHT22;1616;52.394;9.756;2023-04-12T08:09:43;15.00;1.00
3208;DHT22;1616;52.394;9.756;2023-04-12T08:12:09;14.70;1.00
3208;DHT22;1616;52.394;9.756;2023-04-12T08:14:35;14.40;1.00
3208;DHT22;1616;52.394;9.756;2023-04-12T08:17:01;14.20;1.00
3208;DHT22;1616;52.394;9.756;2023-04-12T08:19:27;14.10;1.00
3208;DHT22;1616;52.394;9.756;2023-04-12T08:21:52;13.90;1.00
3208;DHT22;1616;52.394;9.756;2023-04-12T08:24:18;13.80;1.00
3208;DHT22;1616;52.394;9.756;2023-04-12T08:26:44;13.70;1.00
3208;DHT22;1616;52.394;9.756;2023-04-12T08:29:11;13.60;1.00
3208;DHT22;1616;52.394;9.756;2023-04-12T08:31:37;13.50;1.00
3208;DHT22;1616;52.394;9.756;2023-04-12T08:34:03;13.40;1.00
3208;DHT22;1616;52.394;9.756;2023-04-12T08:36:28;13.20;1.00
3208;DHT22;1616;52.394;9.756;2023-04-12T08:39:00;13.10;1.00
3208;DHT22;1616;52.394;9.756;2023-04-12T08:41:26;13.00;1.00
3208;DHT22;1616;52.394;9.756;2023-04-12T08:43:52;12.90;1.00
3208;DHT22;1616;52.394;9.756;2023-04-12T08:46:20;12.70;1.00
3208;DHT22;1616;52.394;9.756;2023-04-12T08:48:50;12.50;1.00
3208;DHT22;1616;52.394;9.756;2023-04-12T08:51:20;12.30;1.00
3208;DHT22;1616;52.394;9.756;2023-04-12T08:53:46;12.00;1.00
3208;DHT22;1616;52.394;9.756;2023-04-12T08:56:13;11.60;1.00
3208;DHT22;1616;52.394;9.756;2023-04-12T08:58:41;11.20;1.00
3208;DHT22;1616;52.394;9.756;2023-04-12T09:01:14;10.80;1.00
3208;DHT22;1616;52.394;9.756;2023-04-12T09:03:44;10.50;1.00
3208;DHT22;1616;52.394;9.756;2023-04-12T09:06:11;10.20;1.00
3208;DHT22;1616;52.394;9.756;2023-04-12T09:08:50;10.00;1.00
3208;DHT22;1616;52.394;9.756;2023-04-12T09:11:23;9.80;1.00
3208;DHT22;1616;52.394;9.756;2023-04-12T09:13:50;9.70;1.00
3208;DHT22;1616;52.394;9.756;2023-04-12T09:16:16;9.50;1.00
3208;DHT22;1616;52.394;9.756;2023-04-12T09:18:51;9.40;1.00
3208;DHT22;1616;52.394;9.756;2023-04-12T09:21:17;9.30;1.00
3208;DHT22;1616;52.394;9.756;2023-04-12T09:23:43;9.20;1.00
3208;DHT22;1616;52.394;9.756;2023-04-12T09:26:08;9.10;1.00
3208;DHT22;1616;52.394;9.756;2023-04-12T09:28:50;9.10;1.00
3208;DHT22;1616;52.394;9.756;2023-04-12T09:31:16;9.00;1.00
3208;DHT22;1616;52.394;9.756;2023-04-12T09:33:42;9.00;1.00
3208;DHT22;1616;52.394;9.756;2023-04-12T09:36:08;9.00;1.00
3208;DHT22;1616;52.394;9.756;2023-04-12T09:38:38;8.90;1.00
3208;DHT22;1616;52.394;9.756;2023-04-12T09:41:17;8.90;1.00
3208;DHT22;1616;52.394;9.756;2023-04-12T09:43:43;8.90;1.00
3208;DHT22;1616;52.394;9.756;2023-04-12T09:46:11;8.90;1.00
3208;DHT22;1616;52.394;9.756;2023-04-12T09:48:38;8.90;1.00
3208;DHT22;1616;52.394;9.756;2023-04-12T09:51:05;8.90;1.00
3208;DHT22;1616;52.394;9.756;2023-04-12T09:53:33;8.90;1.00
3208;DHT22;1616;52.394;9.756;2023-04-12T09:56:01;8.90;1.00
3208;DHT22;1616;52.394;9.756;2023-04-12T09:58:28;9.00;1.00
3208;DHT22;1616;52.394;9.756;2023-04-12T10:00:56;8.90;1.00
3208;DHT22;1616;52.394;9.756;2023-04-12T10:03:22;8.90;1.00
3208;DHT22;1616;52.394;9.756;2023-04-12T10:05:50;8.90;1.00
3208;DHT22;1616;52.394;9.756;2023-04-12T10:08:16;9.00;1.00
3208;DHT22;1616;52.394;9.756;2023-04-12T10:10:44;9.00;1.00
3208;DHT22;1616;52.394;9.756;2023-04-12T10:13:11;9.10;1.00
3208;DHT22;1616;52.394;9.756;2023-04-12T10:15:38;9.10;1.00
3208;DHT22;1616;52.394;9.756;2023-04-12T10:18:05;9.10;1.00
3208;DHT22;1616;52.394;9.756;2023-04-12T10:20:31;9.20;1.00
3208;DHT22;1616;52.394;9.756;2023-04-12T10:22:57;9.20;1.00
3208;DHT22;1616;52.394;9.756;2023-04-12T10:25:27;9.20;1.00
3208;DHT22;1616;52.394;9.756;2023-04-12T10:27:55;9.20;1.00
3208;DHT22;1616;52.394;9.756;2023-04-12T10:30:29;9.20;1.00
3208;DHT22;1616;52.394;9.756;2023-04-12T10:35:48;9.20;1.00
3208;DHT22;1616;52.394;9.756;2023-04-12T10:38:15;9.30;1.00
3208;DHT22;1616;52.394;9.756;2023-04-12T10:41:06;9.30;1.00
3208;DHT22;1616;52.394;9.756;2023-04-12T10:43:32;9.40;1.00
3208;DHT22;1616;52.394;9.756;2023-04-12T10:45:58;9.40;1.00
3208;DHT22;1616;52.394;9.756;2023-04-12T10:48:33;9.50;1.00
3208;DHT22;1616;52.394;9.756;2023-04-12T10:51:20;9.50;1.00
3208;DHT22;1616;52.394;9.756;2023-04-12T10:53:50;9.60;1.00
3208;DHT22;1616;52.394;9.756;2023-04-12T10:59:02;9.70;1.00
3208;DHT22;1616;52.394;9.756;2023-04-12T11:01:28;9.80;1.00
3208;DHT22;1616;52.394;9.756;2023-04-12T11:04:18;9.80;1.00
3208;DHT22;1616;52.394;9.756;2023-04-12T11:07:01;9.80;1.00
3208;DHT22;1616;52.394;9.756;2023-04-12T11:09:38;9.90;1.00
3208;DHT22;1616;52.394;9.756;2023-04-12T11:14:37;9.90;1.00
3208;DHT22;1616;52.394;9.756;2023-04-12T11:19:39;9.80;1.00
3208;DHT22;1616;52.394;9.756;2023-04-12T11:22:12;9.80;1.00
3208;DHT22;1616;52.394;9.756;2023-04-12T11:25:00;9.80;1.00
3208;DHT22;1616;52.394;9.756;2023-04-12T11:27:27;9.70;1.00
3208;DHT22;1616;52.394;9.756;2023-04-12T11:29:55;9.70;1.00
3208;DHT22;1616;52.394;9.756;2023-04-12T11:32:26;9.70;1.00
3208;DHT22;1616;52.394;9.756;2023-04-12T11:34:54;9.70;1.00
3208;DHT22;1616;52.394;9.756;2023-04-12T11:37:21;9.70;1.00
3208;DHT22;1616;52.394;9.756;2023-04-12T11:39:50;9.80;1.00
3208;DHT22;1616;52.394;9.756;2023-04-12T11:42:20;9.80;1.00
3208;DHT22;1616;52.394;9.756;2023-04-12T11:44:47;9.80;1.00
3208;DHT22;1616;52.394;9.756;2023-04-12T11:47:20;9.80;1.00
3208;DHT22;1616;52.394;9.756;2023-04-12T11:49:51;9.90;1.00
3208;DHT22;1616;52.394;9.756;2023-04-12T11:52:18;9.90;1.00
3208;DHT22;1616;52.394;9.756;2023-04-12T11:54:46;9.90;1.00
3208;DHT22;1616;52.394;9.756;2023-04-12T11:57:14;10.00;1.00
3208;DHT22;1616;52.394;9.756;2023-04-12T11:59:42;10.00;1.00
3208;DHT22;1616;52.394;9.756;2023-04-12T12:02:09;10.10;1.00
3208;DHT22;1616;52.394;9.756;2023-04-12T12:04:35;10.10;1.00
3208;DHT22;1616;52.394;9.756;2023-04-12T12:07:01;10.20;1.00
3208;DHT22;1616;52.394;9.756;2023-04-12T12:09:30;10.20;1.00
3208;DHT22;1616;52.394;9.756;2023-04-12T12:11:55;10.20;1.00
3208;DHT22;1616;52.394;9.756;2023-04-12T12:14:22;10.20;1.00
3208;DHT22;1616;52.394;9.756;2023-04-12T12:17:11;10.20;1.00
3208;DHT22;1616;52.394;9.756;2023-04-12T12:19:45;10.20;1.00
3208;DHT22;1616;52.394;9.756;2023-04-12T12:22:18;10.20;1.00
3208;DHT22;1616;52.394;9.756;2023-04-12T12:24:54;10.20;1.00
3208;DHT22;1616;52.394;9.756;2023-04-12T12:29:55;10.30;1.00
3208;DHT22;1616;52.394;9.756;2023-04-12T12:32:21;10.40;1.00
3208;DHT22;1616;52.394;9.756;2023-04-12T12:34:54;10.40;1.00
3208;DHT22;1616;52.394;9.756;2023-04-12T12:37:23;10.50;1.00
3208;DHT22;1616;52.394;9.756;2023-04-12T12:40:11;10.50;1.00
3208;DHT22;1616;52.394;9.756;2023-04-12T12:42:45;10.60;1.00
3208;DHT22;1616;52.394;9.756;2023-04-12T12:45:12;10.60;1.00
3208;DHT22;1616;52.394;9.756;2023-04-12T12:47:57;10.60;1.00
3208;DHT22;1616;52.394;9.756;2023-04-12T12:50:29;10.60;1.00
3208;DHT22;1616;52.394;9.756;2023-04-12T12:52:55;10.70;1.00
3208;DHT22;1616;52.394;9.756;2023-04-12T12:55:22;10.70;1.00
3208;DHT22;1616;52.394;9.756;2023-04-12T12:57:50;10.70;1.00
3208;DHT22;1616;52.394;9.756;2023-04-12T13:00:18;10.80;1.00
3208;DHT22;1616;52.394;9.756;2023-04-12T13:02:44;10.80;1.00
3208;DHT22;1616;52.394;9.756;2023-04-12T13:05:11;11.00;1.00
3208;DHT22;1616;52.394;9.756;2023-04-12T13:07:39;11.10;1.00
3208;DHT22;1616;52.394;9.756;2023-04-12T13:10:05;11.30;1.00
3208;DHT22;1616;52.394;9.756;2023-04-12T13:12:36;11.40;1.00
3208;DHT22;1616;52.394;9.756;2023-04-12T13:15:02;11.50;1.00
3208;DHT22;1616;52.394;9.756;2023-04-12T13:17:29;11.70;1.00
3208;DHT22;1616;52.394;9.756;2023-04-12T13:19:54;11.90;1.00
3208;DHT22;1616;52.394;9.756;2023-04-12T13:22:20;12.10;1.00
3208;DHT22;1616;52.394;9.756;2023-04-12T13:24:46;12.20;1.00
3208;DHT22;1616;52.394;9.756;2023-04-12T13:27:12;12.30;1.00
3208;DHT22;1616;52.394;9.756;2023-04-12T13:29:39;12.40;1.00
3208;DHT22;1616;52.394;9.756;2023-04-12T13:32:05;12.40;1.00
3208;DHT22;1616;52.394;9.756;2023-04-12T13:34:31;12.60;1.00
3208;DHT22;1616;52.394;9.756;2023-04-12T13:36:57;12.70;1.00
3208;DHT22;1616;52.394;9.756;2023-04-12T13:39:23;12.70;1.00
3208;DHT22;1616;52.394;9.756;2023-04-12T13:41:49;12.90;1.00
3208;DHT22;1616;52.394;9.756;2023-04-12T13:44:15;12.90;1.00
3208;DHT22;1616;52.394;9.756;2023-04-12T13:46:41;12.90;1.00
3208;DHT22;1616;52.394;9.756;2023-04-12T13:49:06;12.80;1.00
3208;DHT22;1616;52.394;9.756;2023-04-12T13:51:36;12.80;1.00
3208;DHT22;1616;52.394;9.756;2023-04-12T13:54:02;12.80;1.00
3208;DHT22;1616;52.394;9.756;2023-04-12T13:56:28;12.80;1.00
3208;DHT22;1616;52.394;9.756;2023-04-12T13:58:55;12.80;1.00
3208;DHT22;1616;52.394;9.756;2023-04-12T14:01:21;12.80;1.00
3208;DHT22;1616;52.394;9.756;2023-04-12T14:03:48;12.90;1.00
3208;DHT22;1616;52.394;9.756;2023-04-12T14:06:13;12.90;1.00
3208;DHT22;1616;52.394;9.756;2023-04-12T14:08:39;13.00;1.00
3208;DHT22;1616;52.394;9.756;2023-04-12T14:11:05;13.10;1.00
3208;DHT22;1616;52.394;9.756;2023-04-12T14:13:31;13.20;1.00
3208;DHT22;1616;52.394;9.756;2023-04-12T14:15:57;13.20;1.00
3208;DHT22;1616;52.394;9.756;2023-04-12T14:18:22;13.40;1.00
3208;DHT22;1616;52.394;9.756;2023-04-12T14:20:50;13.40;1.00
3208;DHT22;1616;52.394;9.756;2023-04-12T14:23:22;13.50;1.00
3208;DHT22;1616;52.394;9.756;2023-04-12T14:25:50;13.60;1.00
3208;DHT22;1616;52.394;9.756;2023-04-12T14:28:19;13.80;1.00
3208;DHT22;1616;52.394;9.756;2023-04-12T14:30:47;14.00;1.00
3208;DHT22;1616;52.394;9.756;2023-04-12T14:33:15;14.00;1.00
3208;DHT22;1616;52.394;9.756;2023-04-12T14:35:41;14.20;1.00
3208;DHT22;1616;52.394;9.756;2023-04-12T14:38:07;14.20;1.00
3208;DHT22;1616;52.394;9.756;2023-04-12T14:40:34;14.20;1.00
3208;DHT22;1616;52.394;9.756;2023-04-12T14:42:59;14.10;1.00
3208;DHT22;1616;52.394;9.756;2023-04-12T14:45:25;14.10;1.00
3208;DHT22;1616;52.394;9.756;2023-04-12T14:47:52;14.00;1.00
3208;DHT22;1616;52.394;9.756;2023-04-12T14:50:18;13.90;1.00
3208;DHT22;1616;52.394;9.756;2023-04-12T14:52:44;14.00;1.00
3208;DHT22;1616;52.394;9.756;2023-04-12T14:55:10;14.00;1.00
3208;DHT22;1616;52.394;9.756;2023-04-12T14:57:38;14.00;1.00
3208;DHT22;1616;52.394;9.756;2023-04-12T15:00:05;13.90;1.00
3208;DHT22;1616;52.394;9.756;2023-04-12T15:02:40;13.80;1.00
3208;DHT22;1616;52.394;9.756;2023-04-12T15:05:07;13.60;1.00
3208;DHT22;1616;52.394;9.756;2023-04-12T15:07:33;13.50;1.00
3208;DHT22;1616;52.394;9.756;2023-04-12T15:10:00;13.40;1.00
3208;DHT22;1616;52.394;9.756;2023-04-12T15:12:26;13.40;1.00
3208;DHT22;1616;52.394;9.756;2023-04-12T15:14:57;13.40;1.00
3208;DHT22;1616;52.394;9.756;2023-04-12T15:17:25;13.30;1.00
3208;DHT22;1616;52.394;9.756;2023-04-12T15:19:51;13.30;1.00
3208;DHT22;1616;52.394;9.756;2023-04-12T15:22:17;13.20;1.00
3208;DHT22;1616;52.394;9.756;2023-04-12T15:24:42;13.20;1.00
3208;DHT22;1616;52.394;9.756;2023-04-12T15:27:08;13.20;1.00
3208;DHT22;1616;52.394;9.756;2023-04-12T15:29:33;13.10;1.00
3208;DHT22;1616;52.394;9.756;2023-04-12T15:32:01;13.00;1.00
3208;DHT22;1616;52.394;9.756;2023-04-12T15:34:26;13.00;1.00
3208;DHT22;1616;52.394;9.756;2023-04-12T15:36:53;12.90;1.00
3208;DHT22;1616;52.394;9.756;2023-04-12T15:39:18;12.90;1.00
3208;DHT22;1616;52.394;9.756;2023-04-12T15:41:44;13.00;1.00
3208;DHT22;1616;52.394;9.756;2023-04-12T15:44:11;13.10;1.00
3208;DHT22;1616;52.394;9.756;2023-04-12T15:46:41;13.20;1.00
3208;DHT22;1616;52.394;9.756;2023-04-12T15:49:08;13.30;1.00
3208;DHT22;1616;52.394;9.756;2023-04-12T15:51:34;13.30;1.00
3208;DHT22;1616;52.394;9.756;2023-04-12T15:54:00;13.40;1.00
3208;DHT22;1616;52.394;9.756;2023-04-12T15:56:26;13.50;1.00
3208;DHT22;1616;52.394;9.756;2023-04-12T15:58:53;13.50;1.00
3208;DHT22;1616;52.394;9.756;2023-04-12T16:01:20;13.60;1.00
3208;DHT22;1616;52.394;9.756;2023-04-12T16:03:46;13.60;1.00
3208;DHT22;1616;52.394;9.756;2023-04-12T16:06:16;13.60;1.00
3208;DHT22;1616;52.394;9.756;2023-04-12T16:08:49;13.50;1.00
3208;DHT22;1616;52.394;9.756;2023-04-12T16:11:17;13.50;1.00
3208;DHT22;1616;52.394;9.756;2023-04-12T16:13:43;13.50;1.00
3208;DHT22;1616;52.394;9.756;2023-04-12T16:16:14;13.40;1.00
3208;DHT22;1616;52.394;9.756;2023-04-12T16:18:42;13.40;1.00
3208;DHT22;1616;52.394;9.756;2023-04-12T16:21:09;13.40;1.00
3208;DHT22;1616;52.394;9.756;2023-04-12T16:23:36;13.30;1.00
3208;DHT22;1616;52.394;9.756;2023-04-12T16:26:03;13.20;1.00
3208;DHT22;1616;52.394;9.756;2023-04-12T16:28:30;13.10;1.00
3208;DHT22;1616;52.394;9.756;2023-04-12T16:30:56;13.00;1.00
3208;DHT22;1616;52.394;9.756;2023-04-12T16:33:22;13.00;1.00
3208;DHT22;1616;52.394;9.756;2023-04-12T16:35:48;12.90;1.00
3208;DHT22;1616;52.394;9.756;2023-04-12T16:38:14;12.90;1.00
3208;DHT22;1616;52.394;9.756;2023-04-12T16:40:40;12.80;1.00
3208;DHT22;1616;52.394;9.756;2023-04-12T16:43:06;12.70;1.00
3208;DHT22;1616;52.394;9.756;2023-04-12T16:45:32;12.60;1.00
3208;DHT22;1616;52.394;9.756;2023-04-12T16:47:58;12.50;1.00
3208;DHT22;1616;52.394;9.756;2023-04-12T16:50:24;12.30;1.00
3208;DHT22;1616;52.394;9.756;2023-04-12T16:52:53;12.10;1.00
3208;DHT22;1616;52.394;9.756;2023-04-12T16:55:19;12.00;1.00